Itumirim, Brazil
Current Conditions -  °F | °C
As of 8:00 PM on Tuesday 25 Nov 2014 (Local Time) from SBBQ Reporting Station
Light Rain Light Rain  
Wind Chill: 68°   Ceiling: 2000
Heat Index: 68°   Visibility: 6mi
Dew Point: 63°   Wind: 10mph
Humidity: 83%   Direction: 40°NE
Pressure: 30.03"   Gusts: NA
Location:  21.32°S, 44.87°W
Report Text: SBBQ 252200Z 04009KT 9999 -RA FEW011 BKN020 OVC100 20/17 Q1017
Loading
Personal Weather Stations






























Interactive Weather Map New forecast layout! Learn more

10-Day Weather Forecast

Advertisements
Track Severe Weather on mobile